sim
Sign-in with your pilot id or email,
or register
Callsign
Passwort

Schedule Details

Flight Number: OEO2130
Departure: Munich Airport (EDDM) at 11:45
Arrival: Thessaloniki International Airport (LGTS) at 13:55

Weather Information
Getting current METAR information for EDDM 211520Z 25010KT CAVOK 12/03 Q1027 NOSIG
Getting current METAR information for LGTS 211520Z 35006KT CAVOK 16/00 Q1021 NOSIG

Schedule Frequency

Route Map